Time;durP1;ratioP1;P1;durP2;ratioP2;P2;SDS_P1;SDS_P2;PMS_P1;PMS_P2;Temp;Humidity;BMP_temperature;BMP_pressure;BME280_temperature;BME280_humidity;BME280_pressure;Samples;Min_cycle;Max_cycle;Signal;HPM_P1;HPM_P2
2022/12/23 00:00:20;;;;;;;175.60;41.80;;;;;;;;;;4899579;29;20048;-73
2022/12/23 00:02:46;;;;;;;190.75;43.70;;;;;;;;;;4899491;29;20036;-73
2022/12/23 00:05:12;;;;;;;186.52;41.78;;;;;;;;;;4881063;29;20044;-73
2022/12/23 00:07:39;;;;;;;174.45;41.78;;;;;;;;;;4884307;29;20366;-73
2022/12/23 00:10:05;;;;;;;177.57;40.65;;;;;;;;;;4899553;29;20104;-73
2022/12/23 00:15:16;;;;;;;175.48;43.13;;;;;;;;;;4899625;29;20044;-73
2022/12/23 00:17:43;;;;;;;171.98;43.15;;;;;;;;;;4899890;29;20067;-73
2022/12/23 00:20:11;;;;;;;184.80;43.08;;;7.30;99.90;;;;;;4899497;29;20123;-73
2022/12/23 00:25:40;;;;;;;170.25;41.13;;;;;;;;;;4899152;29;20044;-73
2022/12/23 00:28:12;;;;;;;167.73;40.60;;;;;;;;;;4902243;29;20492;-73
2022/12/23 00:30:45;;;;;;;196.77;44.25;;;;;;;;;;4903173;29;20072;-73
2022/12/23 00:33:12;;;;;;;189.50;41.00;;;;;;;;;;4903518;29;20048;-73
2022/12/23 00:35:38;;;;;;;187.00;40.22;;;;;;;;;;4903312;29;20087;-73
2022/12/23 00:38:04;;;;;;;182.25;39.88;;;;;;;;;;4903260;29;20048;-73
2022/12/23 00:43:16;;;;;;;171.32;39.00;;;;;;;;;;4903526;29;20044;-73
2022/12/23 00:45:42;;;;;;;169.80;39.35;;;;;;;;;;4903196;29;20044;-73
2022/12/23 00:50:53;;;;;;;179.52;37.67;;;;;;;;;;4902545;29;20044;-73
2022/12/23 00:53:19;;;;;;;181.07;40.60;;;;;;;;;;4903374;29;20054;-73
2022/12/23 00:55:49;;;;;;;164.75;37.60;;;;;;;;;;4903207;29;20051;-73
2022/12/23 00:58:16;;;;;;;172.48;39.65;;;7.10;99.90;;;;;;4903256;29;20437;-73
2022/12/23 01:06:13;;;;;;;178.35;40.33;;;;;;;;;;4902610;29;20085;-73
2022/12/23 01:08:39;;;;;;;192.77;39.15;;;;;;;;;;4902931;29;20051;-73
2022/12/23 01:11:07;;;;;;;232.23;40.75;;;;;;;;;;4902321;29;20048;-73
2022/12/23 01:13:33;;;;;;;203.90;42.17;;;;;;;;;;4902800;29;20423;-73
2022/12/23 01:16:04;;;;;;;210.82;43.05;;;7.40;99.90;;;;;;4902763;29;20123;-73
2022/12/23 01:18:30;;;;;;;225.00;41.28;;;;;;;;;;4902709;29;20048;-73
2022/12/23 01:20:56;;;;;;;210.70;42.30;;;;;;;;;;4902134;29;20044;-73
2022/12/23 01:23:22;;;;;;;215.43;42.88;;;;;;;;;;4919584;29;20148;-73
2022/12/23 01:25:56;;;;;;;222.13;42.28;;;7.10;99.90;;;;;;4919312;29;20099;-73
2022/12/23 01:28:22;;;;;;;216.48;40.53;;;;;;;;;;4919491;29;20536;-73
2022/12/23 01:30:48;;;;;;;217.25;44.53;;;;;;;;;;4901901;29;20044;-73
2022/12/23 01:33:14;;;;;;;186.18;40.28;;;;;;;;;;4902534;29;20421;-73
2022/12/23 01:35:40;;;;;;;184.00;38.78;;;;;;;;;;4919241;29;20036;-73
2022/12/23 01:38:06;;;;;;;180.68;37.22;;;;;;;;;;4901860;29;20048;-73
2022/12/23 01:40:36;;;;;;;183.82;37.67;;;;;;;;;;4886072;29;20400;-73
2022/12/23 01:43:02;;;;;;;189.07;40.20;;;;;;;;;;4902086;29;20076;-73
2022/12/23 01:45:29;;;;;;;171.25;36.88;;;;;;;;;;4886462;29;20044;-73
2022/12/23 01:48:16;;;;;;;169.63;35.53;;;;;;;;;;4918655;29;20504;-73
2022/12/23 01:50:47;;;;;;;157.73;36.17;;;7.20;99.90;;;;;;4902285;29;20512;-73
2022/12/23 01:53:18;;;;;;;165.40;35.88;;;7.10;99.90;;;;;;4901779;29;20040;-73
2022/12/23 01:55:47;;;;;;;163.93;35.35;;;7.10;99.90;;;;;;4886166;29;20052;-73
2022/12/23 01:58:25;;;;;;;146.68;33.50;;;7.20;99.90;;;;;;4886169;29;20091;-71
2022/12/23 02:03:42;;;;;;;146.10;35.22;;;;;;;;;;4918591;29;20083;-71
2022/12/23 02:09:18;;;;;;;126.03;30.58;;;;;;;;;;4883046;29;20056;-71
2022/12/23 02:11:47;;;;;;;146.70;32.75;;;;;;;;;;4894668;29;20047;-71
2022/12/23 02:17:09;;;;;;;130.85;29.05;;;;;;;;;;4901378;29;20052;-71
2022/12/23 02:19:56;;;;;;;113.93;28.77;;;7.10;99.90;;;;;;4901434;29;20043;-71
2022/12/23 02:22:48;;;;;;;124.35;28.92;;;7.30;99.90;;;;;;4901225;29;20111;-71
2022/12/23 02:25:24;;;;;;;137.90;29.80;;;;;;;;;;4901468;29;20085;-71
2022/12/23 02:28:07;;;;;;;129.32;27.80;;;7.00;99.90;;;;;;4901388;29;20405;-71
2022/12/23 02:30:56;;;;;;;114.95;27.33;;;;;;;;;;4901059;29;20044;-71
2022/12/23 02:33:41;;;;;;;108.65;26.30;;;7.20;99.90;;;;;;4900608;29;20048;-71
2022/12/23 02:36:17;;;;;;;109.10;25.20;;;;;;;;;;4901069;29;20056;-71
2022/12/23 02:38:49;;;;;;;105.88;25.38;;;;;;;;;;4900844;29;20401;-71
2022/12/23 02:41:20;;;;;;;106.68;26.77;;;;;;;;;;4900861;29;20127;-71
2022/12/23 02:44:15;;;;;;;100.75;24.90;;;;;;;;;;4900784;29;20051;-71
2022/12/23 02:46:53;;;;;;;108.43;26.02;;;7.10;99.90;;;;;;4851561;29;20060;-71
2022/12/23 02:49:22;;;;;;;95.90;24.05;;;;;;;;;;4900679;29;20048;-71
2022/12/23 02:51:49;;;;;;;102.53;23.67;;;;;;;;;;4900010;29;20036;-71
2022/12/23 02:54:28;;;;;;;94.07;23.98;;;7.10;99.90;;;;;;4900411;29;20056;-71
2022/12/23 02:56:56;;;;;;;101.65;24.92;;;7.10;99.90;;;;;;4888986;29;20036;-71
2022/12/23 02:59:26;;;;;;;100.60;23.40;;;7.10;99.90;;;;;;4885661;29;20048;-71
2022/12/23 03:01:53;;;;;;;94.35;25.20;;;;;;;;;;4899704;29;20051;-71
2022/12/23 03:04:19;;;;;;;95.13;23.35;;;;;;;;;;4900670;29;20051;-71
2022/12/23 03:06:50;;;;;;;92.47;23.90;;;7.20;99.90;;;;;;4900530;29;20060;-71
2022/12/23 03:09:39;;;;;;;97.47;23.25;;;;;;;;;;4884789;29;20055;-71
2022/12/23 03:12:11;;;;;;;100.10;24.35;;;;;;;;;;4883033;29;20051;-71
2022/12/23 03:14:57;;;;;;;94.47;23.73;;;6.70;99.90;;;;;;4900345;29;20044;-71
2022/12/23 03:17:23;;;;;;;101.18;23.70;;;;;;;;;;4890499;29;20043;-71
2022/12/23 03:19:55;;;;;;;89.93;23.70;;;;;;;;;;4917441;29;20048;-71
2022/12/23 03:23:05;;;;;;;89.03;23.52;;;7.10;99.90;;;;;;4900290;29;20048;-71
2022/12/23 03:25:44;;;;;;;98.38;25.58;;;7.20;99.90;;;;;;4831003;29;20053;-71
2022/12/23 03:28:13;;;;;;;98.18;25.95;;;;;;;;;;4859139;29;20050;-71
2022/12/23 03:30:43;;;;;;;102.22;24.88;;;7.20;99.90;;;;;;4878679;29;20516;-71
2022/12/23 03:33:18;;;;;;;101.85;24.50;;;;;;;;;;4900070;29;20036;-71
2022/12/23 03:35:55;;;;;;;105.07;26.50;;;7.30;99.90;;;;;;4900354;29;20071;-71
2022/12/23 03:38:22;;;;;;;101.90;25.02;;;7.10;99.90;;;;;;4900072;29;20047;-71
2022/12/23 03:40:54;;;;;;;105.65;24.13;;;;;;;;;;4899973;29;20055;-71
2022/12/23 03:43:30;;;;;;;108.60;27.35;;;;;;;;;;4900268;29;20055;-72
2022/12/23 03:46:08;;;;;;;103.75;25.83;;;;;;;;;;4916998;29;20099;-72
2022/12/23 03:48:47;;;;;;;94.65;23.88;;;7.20;99.90;;;;;;4900205;29;20052;-71
2022/12/23 03:51:18;;;;;;;97.38;23.23;;;;;;;;;;4900547;29;20373;-71
2022/12/23 03:53:53;;;;;;;102.80;22.33;;;7.00;99.90;;;;;;4899893;29;20040;-71
2022/12/23 03:56:26;;;;;;;107.65;25.90;;;7.30;99.90;;;;;;4899353;29;20047;-71
2022/12/23 03:59:00;;;;;;;96.68;24.08;;;;;;;;;;4900065;29;20047;-71
2022/12/23 04:01:44;;;;;;;96.53;24.55;;;7.10;99.90;;;;;;4899317;29;20047;-71
2022/12/23 04:04:19;;;;;;;87.85;21.30;;;7.10;99.90;;;;;;4899882;29;20044;-71
2022/12/23 04:06:53;;;;;;;86.70;21.67;;;;;;;;;;4884002;29;20468;-71
2022/12/23 04:09:20;;;;;;;84.72;20.77;;;;;;;;;;4899714;29;20549;-71
2022/12/23 04:11:47;;;;;;;84.88;20.40;;;;;;;;;;4899618;29;20504;-71
2022/12/23 04:14:17;;;;;;;85.55;20.25;;;;;;;;;;4899702;29;20409;-71
2022/12/23 04:16:43;;;;;;;79.47;19.67;;;;;;;;;;4884454;29;20556;-71
2022/12/23 04:19:09;;;;;;;89.03;19.92;;;;;;;;;;4899939;29;20382;-71
2022/12/23 04:21:35;;;;;;;89.88;21.08;;;;;;;;;;4899969;29;20044;-71
2022/12/23 04:24:01;;;;;;;78.95;22.05;;;;;;;;;;4899606;29;20052;-71
2022/12/23 04:26:27;;;;;;;83.97;20.75;;;;;;;;;;4899500;29;20047;-71
2022/12/23 04:28:53;;;;;;;91.88;21.90;;;;;;;;;;4884116;29;20096;-71
2022/12/23 04:31:19;;;;;;;92.57;20.95;;;;;;;;;;4899394;29;20036;-71
2022/12/23 04:33:45;;;;;;;81.10;20.48;;;;;;;;;;4899366;29;20107;-71
2022/12/23 04:36:11;;;;;;;89.70;21.25;;;;;;;;;;4899721;29;20050;-71
2022/12/23 04:38:37;;;;;;;92.60;22.30;;;;;;;;;;4884008;29;20043;-71
2022/12/23 04:41:03;;;;;;;92.55;19.92;;;;;;;;;;4899351;29;20166;-71
2022/12/23 04:43:29;;;;;;;89.78;21.45;;;;;;;;;;4899202;29;20039;-71
2022/12/23 04:45:55;;;;;;;94.90;21.83;;;;;;;;;;4899462;29;20052;-71
2022/12/23 04:48:21;;;;;;;96.18;21.83;;;;;;;;;;4899420;29;20047;-71
2022/12/23 04:50:48;;;;;;;93.55;20.38;;;;;;;;;;4884240;29;20149;-71
2022/12/23 04:53:14;;;;;;;86.15;21.05;;;;;;;;;;4883789;29;20127;-71
2022/12/23 04:55:40;;;;;;;94.05;21.73;;;;;;;;;;4899734;29;20052;-71
2022/12/23 04:58:06;;;;;;;87.65;20.30;;;;;;;;;;4899194;29;20051;-71
2022/12/23 05:00:32;;;;;;;83.78;19.15;;;;;;;;;;4899366;29;20063;-71
2022/12/23 05:02:58;;;;;;;85.75;20.35;;;;;;;;;;4899361;29;20055;-71
2022/12/23 05:05:24;;;;;;;91.05;20.95;;;;;;;;;;4899166;29;20064;-71
2022/12/23 05:07:50;;;;;;;92.75;22.00;;;;;;;;;;4899690;29;20162;-71
2022/12/23 05:10:16;;;;;;;84.25;21.92;;;7.10;99.90;;;;;;4883805;29;20050;-72
2022/12/23 05:12:42;;;;;;;77.05;20.20;;;;;;;;;;4899367;29;20393;-73
2022/12/23 05:15:09;;;;;;;86.13;21.20;;;;;;;;;;4901042;29;20036;-73
2022/12/23 05:17:35;;;;;;;72.45;21.75;;;;;;;;;;4902488;29;20048;-73
2022/12/23 05:20:01;;;;;;;73.55;21.15;;;;;;;;;;4902603;29;20050;-73
2022/12/23 05:22:27;;;;;;;77.95;20.25;;;;;;;;;;4902692;29;20054;-73
2022/12/23 05:24:53;;;;;;;69.22;20.38;;;;;;;;;;4902382;29;20048;-73
2022/12/23 05:27:19;;;;;;;70.43;19.10;;;;;;;;;;4902632;29;20083;-72
2022/12/23 05:29:45;;;;;;;67.10;17.50;;;;;;;;;;4902155;29;20044;-73
2022/12/23 05:32:11;;;;;;;63.65;16.92;;;;;;;;;;4902548;29;20076;-73
2022/12/23 05:34:37;;;;;;;65.43;18.48;;;;;;;;;;4902212;29;20048;-73
2022/12/23 05:37:03;;;;;;;61.03;17.63;;;;;;;;;;4886736;29;20123;-73
2022/12/23 05:39:29;;;;;;;59.10;17.60;;;;;;;;;;4902325;29;20040;-73
2022/12/23 05:41:55;;;;;;;54.78;17.30;;;;;;;;;;4902151;29;20548;-73
2022/12/23 05:44:21;;;;;;;61.67;18.70;;;;;;;;;;4902183;29;20071;-73
2022/12/23 05:46:47;;;;;;;58.40;17.65;;;;;;;;;;4902329;29;20079;-73
2022/12/23 05:49:13;;;;;;;53.97;16.90;;;;;;;;;;4901956;29;20044;-73
2022/12/23 05:51:39;;;;;;;57.20;17.90;;;;;;;;;;4902305;29;20036;-73
2022/12/23 05:54:05;;;;;;;65.80;18.88;;;;;;;;;;4902069;29;20047;-73
2022/12/23 05:56:31;;;;;;;59.33;17.33;;;;;;;;;;4902053;29;20149;-73
2022/12/23 05:58:57;;;;;;;63.35;18.35;;;;;;;;;;4901660;29;20052;-73
2022/12/23 06:01:24;;;;;;;63.45;16.73;;;;;;;;;;4901821;29;20051;-73
2022/12/23 06:03:50;;;;;;;51.25;15.45;;;;;;;;;;4901691;29;20051;-73
2022/12/23 06:06:16;;;;;;;57.13;17.38;;;;;;;;;;4901486;29;20547;-73
2022/12/23 06:08:42;;;;;;;61.97;17.67;;;;;;;;;;4901457;29;20045;-73
2022/12/23 06:11:08;;;;;;;61.08;16.05;;;;;;;;;;4901522;29;20044;-73
2022/12/23 06:13:34;;;;;;;54.08;16.10;;;;;;;;;;4901533;29;20048;-73
2022/12/23 06:16:00;;;;;;;62.65;16.80;;;;;;;;;;4901586;29;20516;-73
2022/12/23 06:18:26;;;;;;;58.72;15.93;;;;;;;;;;4901549;29;20052;-73
2022/12/23 06:20:52;;;;;;;57.25;18.08;;;;;;;;;;4901507;29;20053;-73
2022/12/23 06:23:18;;;;;;;53.45;16.95;;;;;;;;;;4901351;29;20051;-73
2022/12/23 06:25:44;;;;;;;58.05;16.00;;;;;;;;;;4901239;29;20048;-73
2022/12/23 06:28:10;;;;;;;59.75;17.70;;;;;;;;;;4901221;29;20051;-73
2022/12/23 06:30:36;;;;;;;53.97;17.13;;;;;;;;;;4901499;29;20113;-73
2022/12/23 06:33:02;;;;;;;50.95;14.73;;;;;;;;;;4885929;29;20040;-73
2022/12/23 06:35:28;;;;;;;54.17;16.00;;;;;;;;;;4901195;29;20046;-72
2022/12/23 06:37:54;;;;;;;59.00;17.52;;;;;;;;;;4901306;29;20044;-72
2022/12/23 06:40:21;;;;;;;54.67;15.75;;;;;;;;;;4901023;29;20556;-72
2022/12/23 06:42:47;;;;;;;48.78;13.90;;;;;;;;;;4901382;29;20043;-73
2022/12/23 06:45:13;;;;;;;48.22;14.05;;;;;;;;;;4900831;29;20044;-73
2022/12/23 06:47:39;;;;;;;44.97;15.00;;;;;;;;;;4869767;29;20088;-73
2022/12/23 06:50:05;;;;;;;51.20;14.95;;;;;;;;;;4900689;29;20052;-73
2022/12/23 06:52:31;;;;;;;43.53;14.63;;;;;;;;;;4901034;29;20048;-73
2022/12/23 06:54:57;;;;;;;43.45;14.35;;;;;;;;;;4900817;29;20036;-73
2022/12/23 06:57:23;;;;;;;46.15;14.38;;;;;;;;;;4884540;29;20040;-73
2022/12/23 06:59:49;;;;;;;44.72;14.57;;;;;;;;;;4892067;29;20040;-73
2022/12/23 07:02:15;;;;;;;36.65;13.25;;;;;;;;;;4899607;29;20481;-73
2022/12/23 07:04:41;;;;;;;45.20;15.25;;;;;;;;;;4900694;29;20485;-73
2022/12/23 07:07:07;;;;;;;51.83;15.50;;;;;;;;;;4884845;29;20068;-73
2022/12/23 07:09:34;;;;;;;49.03;14.10;;;;;;;;;;4900727;29;20386;-73
2022/12/23 07:12:02;;;;;;;41.42;14.75;;;6.80;99.90;;;;;;4900789;29;20131;-73
2022/12/23 07:14:28;;;;;;;42.47;14.93;;;;;;;;;;4900723;29;20041;-73
2022/12/23 07:16:54;;;;;;;41.75;14.10;;;;;;;;;;4900932;29;20444;-73
2022/12/23 07:19:20;;;;;;;47.15;15.15;;;;;;;;;;4900795;29;20047;-73
2022/12/23 07:21:47;;;;;;;41.55;14.57;;;;;;;;;;4885197;29;20043;-73
2022/12/23 07:24:14;;;;;;;42.97;14.40;;;;;;;;;;4900438;29;20509;-73
2022/12/23 07:26:40;;;;;;;43.72;14.30;;;;;;;;;;4931931;29;20131;-73
2022/12/23 07:29:06;;;;;;;40.55;14.32;;;;;;;;;;4932042;29;20043;-73
2022/12/23 07:31:32;;;;;;;43.45;14.95;;;;;;;;;;4931698;29;20044;-73
2022/12/23 07:33:58;;;;;;;45.78;14.18;;;;;;;;;;4900526;29;20048;-73
2022/12/23 07:36:24;;;;;;;49.88;14.48;;;;;;;;;;4915484;29;20048;-73
2022/12/23 07:38:50;;;;;;;43.50;13.18;;;;;;;;;;4931726;29;20040;-73
2022/12/23 07:41:17;;;;;;;53.85;14.45;;;;;;;;;;4931868;29;20086;-73
2022/12/23 07:43:43;;;;;;;42.28;13.32;;;;;;;;;;4932070;29;20053;-73
2022/12/23 07:46:09;;;;;;;46.65;12.65;;;;;;;;;;4930949;29;20054;-73
2022/12/23 07:48:35;;;;;;;47.15;14.70;;;;;;;;;;4929783;29;20458;-73
2022/12/23 07:51:02;;;;;;;43.95;13.98;;;;;;;;;;4929615;29;20040;-75
2022/12/23 07:53:28;;;;;;;47.97;13.95;;;;;;;;;;4929517;29;20055;-74
2022/12/23 07:55:54;;;;;;;43.00;13.32;;;;;;;;;;4929386;29;20044;-74
2022/12/23 07:58:20;;;;;;;40.15;12.13;;;;;;;;;;4929750;29;20055;-74
2022/12/23 08:00:46;;;;;;;50.50;14.85;;;;;;;;;;4894976;29;20044;-74
2022/12/23 08:03:13;;;;;;;45.60;12.98;;;;;;;;;;4880363;29;20560;-73
2022/12/23 08:05:39;;;;;;;41.47;12.10;;;;;;;;;;4865789;29;20056;-73
2022/12/23 08:08:05;;;;;;;45.20;12.13;;;;;;;;;;4881094;29;20053;-74
2022/12/23 08:10:31;;;;;;;41.47;13.30;;;;;;;;;;4881278;29;20052;-71
2022/12/23 08:12:59;;;;;;;39.15;13.10;;;6.90;99.90;;;;;;4881443;29;20434;-71
2022/12/23 08:15:25;;;;;;;40.10;13.13;;;;;;;;;;4898006;29;20044;-71
2022/12/23 08:17:51;;;;;;;43.45;12.95;;;;;;;;;;4881337;29;20096;-71
2022/12/23 08:20:17;;;;;;;38.70;12.32;;;;;;;;;;4898181;29;20527;-71
2022/12/23 08:22:43;;;;;;;36.05;11.73;;;;;;;;;;4881656;29;20389;-71
2022/12/23 08:25:09;;;;;;;48.08;13.80;;;;;;;;;;4898345;29;20056;-71
2022/12/23 08:27:35;;;;;;;42.05;13.57;;;;;;;;;;4881695;29;20060;-71
2022/12/23 08:30:02;;;;;;;42.05;13.57;;;;;;;;;;4885660;29;20055;-71
2022/12/23 08:32:28;;;;;;;45.72;15.23;;;;;;;;;;4898946;29;20040;-72
2022/12/23 08:34:56;;;;;;;47.08;16.48;;;6.80;99.90;;;;;;4898900;29;20374;-71
2022/12/23 08:37:23;;;;;;;50.65;16.92;;;;;;;;;;4898635;29;20044;-71
2022/12/23 08:39:49;;;;;;;59.58;19.02;;;;;;;;;;4898907;29;20047;-71
2022/12/23 08:42:15;;;;;;;43.22;15.68;;;;;;;;;;4915698;29;20048;-71
2022/12/23 08:44:41;;;;;;;50.10;18.90;;;;;;;;;;4898407;29;20433;-71
2022/12/23 08:47:07;;;;;;;46.22;15.25;;;;;;;;;;4897643;29;20381;-71
2022/12/23 08:49:33;;;;;;;43.95;14.20;;;;;;;;;;4918888;29;20040;-71
2022/12/23 08:51:59;;;;;;;41.00;13.18;;;;;;;;;;4916863;29;20567;-71
2022/12/23 08:54:27;;;;;;;32.80;13.27;;;;;;;;;;4902131;29;20036;-71
2022/12/23 08:56:53;;;;;;;48.97;13.80;;;;;;;;;;4901887;29;20500;-71
2022/12/23 08:59:19;;;;;;;52.13;14.40;;;;;;;;;;4919039;29;20051;-72
2022/12/23 09:01:45;;;;;;;48.35;15.73;;;;;;;;;;4901682;29;20412;-72
2022/12/23 09:04:11;;;;;;;40.45;13.85;;;;;;;;;;4901944;29;20036;-72
2022/12/23 09:06:40;;;;;;;42.40;13.88;;;7.00;99.90;;;;;;4900638;29;20054;-71
2022/12/23 09:09:07;;;;;;;39.38;14.13;;;6.90;99.90;;;;;;4901996;29;20398;-71
2022/12/23 09:11:34;;;;;;;46.20;14.60;;;7.10;99.90;;;;;;4885834;29;20044;-71
2022/12/23 09:14:01;;;;;;;46.67;13.90;;;7.10;99.90;;;;;;4901860;29;20039;-72
2022/12/23 09:16:27;;;;;;;41.72;13.57;;;;;;;;;;4899271;29;20063;-71
2022/12/23 09:18:53;;;;;;;47.45;14.02;;;;;;;;;;4886264;29;20086;-71
2022/12/23 09:21:21;;;;;;;42.90;13.93;;;7.00;99.90;;;;;;4885751;29;20044;-72
2022/12/23 09:23:48;;;;;;;47.38;14.40;;;;;;;;;;4901693;29;20047;-72
2022/12/23 09:26:26;;;;;;;46.10;14.57;;;7.20;99.90;;;;;;4885248;29;20052;-72
2022/12/23 09:28:54;;;;;;;33.30;13.07;;;7.20;99.90;;;;;;4885699;29;20052;-72
2022/12/23 09:31:20;;;;;;;43.75;14.55;;;7.30;99.90;;;;;;4900342;29;20032;-72
2022/12/23 09:33:48;;;;;;;42.20;13.35;;;7.20;99.90;;;;;;4901340;29;20044;-72
2022/12/23 09:36:15;;;;;;;39.50;15.65;;;;;;;;;;4901133;29;20117;-72
2022/12/23 09:38:41;;;;;;;48.20;16.13;;;;;;;;;;4901472;29;20502;-72
2022/12/23 09:41:30;;;;;;;46.60;15.90;;;7.10;99.90;;;;;;4900975;29;20040;-72
2022/12/23 09:43:59;;;;;;;36.38;13.52;;;;;;;;;;4901309;29;20051;-72
2022/12/23 09:46:27;;;;;;;37.42;12.98;;;;;;;;;;4901277;29;20434;-72
2022/12/23 09:49:01;;;;;;;38.42;13.10;;;;;;;;;;4901055;29;20044;-72
2022/12/23 09:51:28;;;;;;;42.70;14.90;;;;;;;;;;4899140;29;20040;-72
2022/12/23 09:54:18;;;;;;;36.95;13.73;;;7.40;99.90;;;;;;4901262;29;20043;-72
2022/12/23 09:56:57;;;;;;;44.78;14.38;;;;;;;;;;4895322;29;20044;-72
2022/12/23 10:00:03;;;;;;;36.55;14.15;;;7.30;99.90;;;;;;4900226;29;20040;-72
2022/12/23 10:02:42;;;;;;;44.78;13.65;;;;;;;;;;4868952;29;20063;-72
2022/12/23 10:05:46;;;;;;;34.50;11.82;;;7.30;99.90;;;;;;4900787;29;20040;-72
2022/12/23 10:08:15;;;;;;;32.65;11.00;;;;;;;;;;4807597;29;20058;-72
2022/12/23 10:10:59;;;;;;;31.13;12.35;;;7.40;99.90;;;;;;4792902;29;20129;-71
2022/12/23 10:13:34;;;;;;;31.85;12.25;;;7.40;99.90;;;;;;4864556;29;20055;-71
2022/12/23 10:16:12;;;;;;;33.78;11.18;;;;;;;;;;4899964;29;20050;-72
2022/12/23 10:18:41;;;;;;;31.77;12.10;;;;;;;;;;4900711;29;20095;-71
2022/12/23 10:21:22;;;;;;;38.63;12.60;;;;;;;;;;4900230;29;20048;-72
2022/12/23 10:23:52;;;;;;;30.73;11.70;;;7.40;99.90;;;;;;4885012;29;20044;-72
2022/12/23 10:26:23;;;;;;;33.50;11.35;;;;;;;;;;4884614;29;20044;-72
2022/12/23 10:28:57;;;;;;;30.90;10.73;;;7.50;99.90;;;;;;4900677;29;20496;-72
2022/12/23 10:31:34;;;;;;;34.03;10.80;;;;;;;;;;4884494;29;20044;-72
2022/12/23 10:34:16;;;;;;;29.25;10.57;;;7.50;99.90;;;;;;4900669;29;20165;-72
2022/12/23 10:36:49;;;;;;;31.17;10.68;;;;;;;;;;4898453;29;20044;-72
2022/12/23 10:39:15;;;;;;;35.58;11.55;;;;;;;;;;4900402;29;20507;-72
2022/12/23 10:42:15;;;;;;;36.13;11.40;;;7.50;99.90;;;;;;4899908;29;20508;-72
2022/12/23 10:45:20;;;;;;;25.58;9.80;;;7.60;99.90;;;;;;4850222;29;20053;-72
2022/12/23 10:48:13;;;;;;;31.45;9.73;;;7.30;99.90;;;;;;4900071;29;20044;-71
2022/12/23 10:50:44;;;;;;;;;;;;;;;;;;4900043;29;20517;-71
2022/12/23 10:53:18;;;;;;;24.48;7.63;;;7.60;99.90;;;;;;4898162;29;19919;-71
2022/12/23 10:55:45;;;;;;;23.33;8.43;;;;;;;;;;4899922;29;20044;-71
2022/12/23 10:58:16;;;;;;;28.45;8.13;;;7.40;99.90;;;;;;4884286;29;20040;-71
2022/12/23 11:00:52;;;;;;;24.10;8.18;;;7.60;99.90;;;;;;4899799;29;20131;-71
2022/12/23 11:03:25;;;;;;;25.35;9.07;;;7.50;99.90;;;;;;4897926;29;20096;-71
2022/12/23 11:05:51;;;;;;;;;;;7.50;99.90;;;;;;4884163;29;20438;-71
2022/12/23 11:08:19;;;;;;;21.33;8.57;;;7.60;99.90;;;;;;4899550;29;20398;-71
2022/12/23 11:10:46;;;;;;;25.67;8.73;;;;;;;;;;4899522;29;20497;-71
2022/12/23 11:13:33;;;;;;;25.23;9.18;;;7.50;99.90;;;;;;4899231;29;20040;-71
2022/12/23 11:16:26;;;;;;;31.27;9.40;;;7.70;99.90;;;;;;4899423;29;20140;-71
2022/12/23 11:18:55;;;;;;;24.55;8.38;;;;;;;;;;4887711;29;20055;-71
2022/12/23 11:21:21;;;;;;;23.92;8.40;;;;;;;;;;4899527;29;20584;-71
2022/12/23 11:23:47;;;;;;;27.55;8.38;;;;;;;;;;4899615;29;20116;-71
2022/12/23 11:26:18;;;;;;;28.80;8.48;;;;;;;;;;4898341;29;20048;-71
2022/12/23 11:29:05;;;;;;;21.40;7.85;;;7.80;99.90;;;;;;4883821;29;20040;-71
2022/12/23 11:31:34;;;;;;;23.50;7.55;;;;;;;;;;4899093;29;20044;-71
2022/12/23 11:34:05;;;;;;;24.63;7.72;;;;;;;;;;4883781;29;20460;-71
2022/12/23 11:36:32;;;;;;;27.67;9.95;;;7.50;99.90;;;;;;4897480;29;20043;-71
2022/12/23 11:39:04;;;;;;;28.00;8.95;;;7.80;99.90;;;;;;4900166;29;20657;-71
2022/12/23 11:41:37;;;;;;;32.60;10.63;;;7.80;99.90;;;;;;4900194;29;20062;-72
2022/12/23 11:44:06;;;;;;;31.13;10.13;;;;;;;;;;4900290;29;20052;-71
2022/12/23 11:46:33;;;;;;;30.20;10.90;;;7.80;99.90;;;;;;4900101;29;20594;-71
2022/12/23 11:49:18;;;;;;;30.00;10.00;;;;;;;;;;4900117;29;20048;-71
2022/12/23 11:51:46;;;;;;;30.33;10.70;;;7.60;99.90;;;;;;4900297;29;20063;-71
2022/12/23 11:54:18;;;;;;;31.38;11.05;;;7.70;99.90;;;;;;4899598;29;20048;-71
2022/12/23 11:56:48;;;;;;;39.40;12.73;;;7.80;99.90;;;;;;4898912;29;20079;-71
2022/12/23 11:59:33;;;;;;;38.30;12.73;;;7.90;99.90;;;;;;4900155;29;20048;-71
2022/12/23 12:02:01;;;;;;;39.38;13.35;;;;;;;;;;4900025;29;20059;-71
2022/12/23 12:04:32;;;;;;;40.97;13.73;;;7.80;99.90;;;;;;4900030;29;20048;-71
2022/12/23 12:06:59;;;;;;;40.67;14.90;;;;;;;;;;4899808;29;20592;-71
2022/12/23 12:09:25;;;;;;;45.45;13.18;;;;;;;;;;4884663;29;20409;-71
2022/12/23 12:12:15;;;;;;;42.22;14.23;;;7.50;99.90;;;;;;4900145;29;20127;-71
2022/12/23 12:14:51;;;;;;;44.20;13.68;;;7.80;99.90;;;;;;4900278;29;20044;-71
2022/12/23 12:17:38;;;;;;;42.28;13.13;;;;;;;;;;4898595;29;20048;-71
2022/12/23 12:20:04;;;;;;;39.15;13.75;;;;;;;;;;4899205;29;20036;-71
2022/12/23 12:22:39;;;;;;;46.40;14.75;;;7.80;99.90;;;;;;4898781;29;20123;-71
2022/12/23 12:25:43;;;;;;;47.60;14.60;;;7.80;99.90;;;;;;4903859;29;20123;-71
2022/12/23 12:28:16;;;;;;;39.72;13.80;;;7.60;99.90;;;;;;4903489;29;20122;-71
2022/12/23 12:30:57;;;;;;;47.53;13.90;;;7.60;99.90;;;;;;4902846;29;20559;-71
2022/12/23 12:33:34;;;;;;;39.10;12.63;;;7.70;99.90;;;;;;4919261;29;20409;-71
2022/12/23 12:36:20;;;;;;;54.75;15.23;;;7.60;99.90;;;;;;4903123;29;20048;-71
2022/12/23 12:38:47;;;;;;;44.33;13.63;;;;;;;;;;4903476;29;20110;-71
2022/12/23 12:41:18;;;;;;;57.17;17.27;;;;;;;;;;4902712;29;20127;-71
2022/12/23 12:44:10;;;;;;;44.35;12.48;;;7.60;99.90;;;;;;4926829;29;20044;-73
2022/12/23 12:46:41;;;;;;;50.42;14.30;;;;;;;;;;4872574;29;20052;-71
2022/12/23 12:49:28;;;;;;;53.97;15.23;;;;;;;;;;4901615;29;20045;-71
2022/12/23 12:52:01;;;;;;;50.58;15.32;;;7.60;99.90;;;;;;4911941;29;20040;-71
2022/12/23 12:54:43;;;;;;;45.90;15.43;;;7.80;99.90;;;;;;4914443;29;20039;-71
2022/12/23 12:57:14;;;;;;;50.63;14.82;;;7.70;99.90;;;;;;4900545;29;20118;-71
2022/12/23 12:59:41;;;;;;;45.97;15.32;;;;;;;;;;4897784;29;20492;-71
2022/12/23 13:02:31;;;;;;;55.47;15.15;;;7.70;99.90;;;;;;4898385;29;20119;-71
2022/12/23 13:05:27;;;;;;;56.60;15.52;;;7.60;99.90;;;;;;4899788;29;20123;-73
2022/12/23 13:08:08;;;;;;;51.88;16.33;;;;;;;;;;4892442;29;20489;-73
2022/12/23 13:10:55;;;;;;;50.38;15.30;;;;;;;;;;4894011;29;20107;-75
2022/12/23 13:14:04;;;;;;;50.28;13.95;;;7.70;99.90;;;;;;4894469;29;20524;-73
2022/12/23 13:16:38;;;;;;;45.60;14.35;;;;;;;;;;4892222;29;20056;-73
2022/12/23 13:19:04;;;;;;;59.80;15.73;;;;;;;;;;4871688;29;20447;-73
2022/12/23 13:21:36;;;;;;;54.88;16.98;;;;;;;;;;4886887;29;20572;-73
2022/12/23 13:24:05;;;;;;;47.13;14.82;;;;;;;;;;4893711;29;20127;-73
2022/12/23 13:26:43;;;;;;;47.88;14.68;;;7.70;99.90;;;;;;4901364;29;20046;-73
2022/12/23 13:29:18;;;;;;;51.72;15.73;;;;;;;;;;4917746;29;20043;-73
2022/12/23 13:31:44;;;;;;;44.65;14.75;;;;;;;;;;4898868;29;20484;-73
2022/12/23 13:34:20;;;;;;;51.67;15.15;;;;;;;;;;4900293;29;20033;-73
2022/12/23 13:36:59;;;;;;;43.83;15.45;;;;;;;;;;4900587;29;20401;-73
2022/12/23 13:40:02;;;;;;;39.03;13.82;;;7.60;99.90;;;;;;4901144;29;20463;-74
2022/12/23 13:42:34;;;;;;;46.47;15.20;;;7.50;99.90;;;;;;4896230;29;20048;-73
2022/12/23 13:45:00;;;;;;;55.10;16.13;;;;;;;;;;4901873;29;20055;-73
2022/12/23 13:47:48;;;;;;;56.28;14.75;;;7.80;99.90;;;;;;4900875;29;20044;-73
2022/12/23 13:50:14;;;;;;;51.47;13.15;;;;;;;;;;4900622;29;20076;-73
2022/12/23 13:52:40;;;;;;;32.33;12.65;;;;;;;;;;4899633;29;20040;-73
2022/12/23 13:55:33;;;;;;;45.25;14.05;;;7.50;99.90;;;;;;4901031;29;20496;-73
2022/12/23 13:58:15;;;;;;;38.08;14.95;;;7.60;99.90;;;;;;4901035;29;20044;-74
2022/12/23 14:00:41;;;;;;;32.95;12.43;;;;;;;;;;4900775;29;20176;-74
2022/12/23 14:03:13;;;;;;;45.38;11.38;;;;;;;;;;4886403;29;20040;-74
2022/12/23 14:05:44;;;;;;;39.72;12.82;;;;;;;;;;4917648;29;20063;-74
2022/12/23 14:08:19;;;;;;;44.70;11.65;;;;;;;;;;4885887;29;20506;-74
2022/12/23 14:10:51;;;;;;;35.45;12.50;;;;;;;;;;4900879;29;20036;-74
2022/12/23 14:13:17;;;;;;;38.13;11.95;;;;;;;;;;4885779;29;20056;-74
2022/12/23 14:16:07;;;;;;;35.92;12.00;;;;;;;;;;4897725;29;20473;-73
2022/12/23 14:19:05;;;;;;;37.70;11.50;;;7.40;99.90;;;;;;4897535;29;20044;-73
2022/12/23 14:21:40;;;;;;;45.72;12.15;;;;;;;;;;4896732;29;20044;-74
2022/12/23 14:24:27;;;;;;;35.35;11.30;;;;;;;;;;4899102;29;20044;-74
2022/12/23 14:27:05;;;;;;;39.55;11.25;;;;;;;;;;4878473;29;20056;-74
2022/12/23 14:29:37;;;;;;;35.40;11.05;;;;;;;;;;4900786;29;20048;-74
2022/12/23 14:32:03;;;;;;;34.92;10.40;;;;;;;;;;4886032;29;20366;-74